createdAt,value
2017-12-17T00:01:55.917Z,7.87
2017-12-17T00:04:25.400Z,9.13
2017-12-17T00:06:57.665Z,10.57
2017-12-17T00:09:25.781Z,10.10
2017-12-17T00:11:53.082Z,8.90
2017-12-17T00:14:20.060Z,8.65
2017-12-17T00:16:46.804Z,7.87
2017-12-17T00:19:13.622Z,8.15
2017-12-17T00:21:41.099Z,8.20
2017-12-17T00:24:09.319Z,7.60
2017-12-17T00:26:37.200Z,9.85
2017-12-17T00:29:03.951Z,9.32
2017-12-17T00:31:30.959Z,8.85
2017-12-17T00:33:59.052Z,8.65
2017-12-17T00:36:26.526Z,8.68
2017-12-17T00:38:53.281Z,10.23
2017-12-17T00:41:21.514Z,10.32
2017-12-17T00:43:51.776Z,9.85
2017-12-17T00:46:24.800Z,7.97
2017-12-17T00:51:24.979Z,9.23
2017-12-17T00:53:53.039Z,7.78
2017-12-17T00:56:21.079Z,9.55
2017-12-17T00:58:47.802Z,9.40
2017-12-17T01:04:04.018Z,9.88
2017-12-17T01:06:32.823Z,9.60
2017-12-17T01:09:00.686Z,9.13
2017-12-17T01:11:28.163Z,9.75
2017-12-17T01:14:00.057Z,10.20
2017-12-17T01:16:31.192Z,9.75
2017-12-17T01:18:58.037Z,8.70
2017-12-17T01:21:27.892Z,9.30
2017-12-17T01:24:01.779Z,9.40
2017-12-17T01:26:29.985Z,8.85
2017-12-17T01:28:59.650Z,9.73
2017-12-17T01:31:27.697Z,10.63
2017-12-17T01:33:55.295Z,8.23
2017-12-17T01:36:24.090Z,9.68
2017-12-17T01:38:51.782Z,8.80
2017-12-17T01:41:18.548Z,10.00
2017-12-17T01:43:45.294Z,9.25
2017-12-17T01:46:14.377Z,9.35
2017-12-17T01:48:41.137Z,9.57
2017-12-17T01:51:07.886Z,9.07
2017-12-17T01:53:35.630Z,9.02
2017-12-17T01:56:02.505Z,9.65
2017-12-17T01:58:29.607Z,9.77
2017-12-17T02:00:56.403Z,9.10
2017-12-17T02:05:55.167Z,8.85
2017-12-17T02:08:22.022Z,8.80
2017-12-17T02:10:48.821Z,9.15
2017-12-17T02:13:15.588Z,9.10
2017-12-17T02:15:42.378Z,9.90
2017-12-17T02:18:09.115Z,10.35
2017-12-17T02:20:35.946Z,8.27
2017-12-17T02:23:02.753Z,8.90
2017-12-17T02:25:29.502Z,8.05
2017-12-17T02:27:56.304Z,10.35
2017-12-17T02:30:23.122Z,9.75
2017-12-17T02:32:50.551Z,10.30
2017-12-17T02:35:17.302Z,9.93
2017-12-17T02:37:46.851Z,10.25
2017-12-17T02:40:15.388Z,10.63
2017-12-17T02:42:42.273Z,10.20
2017-12-17T02:45:11.023Z,10.20
2017-12-17T02:47:38.074Z,10.57
2017-12-17T02:50:06.489Z,9.50
2017-12-17T02:52:34.786Z,10.35
2017-12-17T02:55:03.371Z,10.05
2017-12-17T02:57:30.890Z,10.48
2017-12-17T02:59:58.009Z,9.65
2017-12-17T03:02:25.506Z,9.45
2017-12-17T03:04:55.235Z,9.93
2017-12-17T03:07:23.004Z,9.68
2017-12-17T03:09:51.479Z,10.40
2017-12-17T03:12:19.313Z,10.63
2017-12-17T03:14:47.647Z,9.70
2017-12-17T03:17:14.490Z,10.60
2017-12-17T03:19:41.386Z,9.05
2017-12-17T03:22:09.421Z,10.45
2017-12-17T03:24:37.217Z,9.43
2017-12-17T03:27:04.617Z,9.55
2017-12-17T03:29:32.014Z,9.88
2017-12-17T03:31:59.356Z,9.55
2017-12-17T03:34:27.789Z,9.20
2017-12-17T03:36:56.718Z,9.68
2017-12-17T03:39:25.524Z,10.13
2017-12-17T03:41:52.576Z,10.80
2017-12-17T03:44:21.147Z,8.98
2017-12-17T03:46:49.953Z,9.35
2017-12-17T03:49:19.590Z,9.75
2017-12-17T03:51:46.385Z,9.75
2017-12-17T03:54:14.658Z,8.57
2017-12-17T03:56:41.610Z,10.48
2017-12-17T03:59:09.045Z,9.77
2017-12-17T04:01:37.529Z,10.00
2017-12-17T04:04:05.410Z,10.85
2017-12-17T04:06:36.291Z,10.18
2017-12-17T04:09:06.269Z,10.90
2017-12-17T04:11:33.026Z,11.35
2017-12-17T04:14:01.722Z,11.32
2017-12-17T04:16:30.622Z,9.93
2017-12-17T04:18:58.627Z,10.30
2017-12-17T04:21:25.878Z,10.23
2017-12-17T04:23:52.627Z,10.68
2017-12-17T04:26:21.448Z,10.02
2017-12-17T04:28:48.354Z,9.75
2017-12-17T04:31:16.030Z,10.10
2017-12-17T04:33:43.226Z,10.32
2017-12-17T04:36:11.926Z,10.40
2017-12-17T04:38:38.710Z,10.30
2017-12-17T04:41:06.468Z,10.15
2017-12-17T04:43:35.767Z,10.00
2017-12-17T04:46:03.336Z,10.43
2017-12-17T04:48:33.035Z,8.60
2017-12-17T04:51:02.169Z,9.98
2017-12-17T04:53:30.610Z,10.30
2017-12-17T04:56:02.695Z,10.02
2017-12-17T04:58:31.498Z,11.12
2017-12-17T05:01:00.631Z,9.88
2017-12-17T05:03:31.191Z,10.15
2017-12-17T05:05:58.835Z,9.38
2017-12-17T05:08:25.712Z,9.90
2017-12-17T05:10:53.984Z,9.40
2017-12-17T05:13:21.773Z,9.55
2017-12-17T05:15:48.995Z,9.60
2017-12-17T05:18:16.606Z,8.93
2017-12-17T05:20:43.403Z,9.15
2017-12-17T05:23:10.402Z,8.40
2017-12-17T05:25:37.213Z,7.57
2017-12-17T05:28:05.580Z,8.32
2017-12-17T05:30:33.027Z,7.97
2017-12-17T05:33:01.685Z,8.50
2017-12-17T05:35:28.999Z,9.20
2017-12-17T05:38:00.176Z,9.23
2017-12-17T05:40:27.924Z,8.32
2017-12-17T05:42:55.568Z,9.55
2017-12-17T05:45:25.970Z,9.18
2017-12-17T05:50:25.674Z,9.48
2017-12-17T05:52:55.157Z,10.40
2017-12-17T05:55:22.051Z,9.60
2017-12-17T05:57:49.838Z,9.80
2017-12-17T06:00:17.559Z,9.95
2017-12-17T06:02:45.131Z,10.48
2017-12-17T06:05:17.039Z,9.05
2017-12-17T06:07:44.063Z,8.98
2017-12-17T06:10:13.703Z,8.57
2017-12-17T06:12:40.925Z,8.02
2017-12-17T06:15:09.189Z,9.63
2017-12-17T06:17:39.512Z,9.48
2017-12-17T06:20:08.382Z,9.20
2017-12-17T06:22:40.883Z,9.88
2017-12-17T06:25:08.086Z,9.00
2017-12-17T06:27:37.195Z,10.10
2017-12-17T06:30:15.290Z,9.45
2017-12-17T06:32:45.376Z,9.45
2017-12-17T06:35:13.666Z,9.50
2017-12-17T06:37:40.893Z,10.57
2017-12-17T06:40:08.330Z,10.05
2017-12-17T06:42:35.966Z,9.55
2017-12-17T06:45:06.325Z,9.40
2017-12-17T06:47:36.112Z,9.10
2017-12-17T06:52:41.971Z,9.93
2017-12-17T06:55:09.917Z,9.45
2017-12-17T07:00:11.030Z,9.75
2017-12-17T07:02:39.866Z,9.75
2017-12-17T07:05:07.315Z,10.30
2017-12-17T07:07:37.411Z,10.15
2017-12-17T07:10:06.752Z,9.82
2017-12-17T07:12:36.175Z,10.20
2017-12-17T07:15:06.735Z,11.12
2017-12-17T07:17:36.163Z,9.15
2017-12-17T07:22:40.351Z,10.25
2017-12-17T07:25:08.648Z,10.20
2017-12-17T07:27:37.322Z,10.57
2017-12-17T07:30:05.679Z,10.52
2017-12-17T07:32:37.376Z,10.00
2017-12-17T07:35:04.518Z,11.30
2017-12-17T07:37:33.830Z,11.63
2017-12-17T07:42:46.740Z,11.32
2017-12-17T07:45:13.981Z,10.50
2017-12-17T07:47:40.733Z,9.52
2017-12-17T07:50:08.352Z,11.57
2017-12-17T07:52:35.145Z,11.20
2017-12-17T07:55:01.861Z,9.95
2017-12-17T07:57:28.598Z,9.90
2017-12-17T07:59:55.325Z,10.25
2017-12-17T08:02:22.066Z,10.70
2017-12-17T08:04:50.651Z,10.52
2017-12-17T08:07:17.399Z,9.98
2017-12-17T08:09:44.126Z,10.55
2017-12-17T08:12:10.869Z,10.45
2017-12-17T08:14:37.596Z,10.13
2017-12-17T08:17:05.600Z,10.25
2017-12-17T08:19:32.329Z,10.38
2017-12-17T08:21:59.106Z,8.60
2017-12-17T08:24:25.825Z,9.32
2017-12-17T08:26:52.570Z,9.52
2017-12-17T08:29:19.296Z,11.05
2017-12-17T08:31:46.430Z,9.70
2017-12-17T08:34:13.157Z,9.50
2017-12-17T08:36:39.906Z,10.05
2017-12-17T08:39:06.640Z,9.88
2017-12-17T08:41:33.378Z,10.45
2017-12-17T08:44:00.708Z,10.40
2017-12-17T08:46:27.446Z,9.55
2017-12-17T08:48:54.165Z,9.93
2017-12-17T08:51:21.051Z,10.07
2017-12-17T08:53:47.828Z,9.80
2017-12-17T08:56:14.577Z,9.55
2017-12-17T08:58:41.279Z,11.05
2017-12-17T09:01:08.034Z,10.45
2017-12-17T09:03:34.758Z,9.80
2017-12-17T09:06:01.963Z,10.60
2017-12-17T09:08:28.736Z,10.40
2017-12-17T09:10:55.515Z,9.32
2017-12-17T09:13:22.253Z,9.32
2017-12-17T09:15:48.980Z,9.65
2017-12-17T09:20:58.023Z,9.23
2017-12-17T09:23:24.760Z,8.85
2017-12-17T09:25:51.486Z,9.00
2017-12-17T09:28:18.246Z,8.23
2017-12-17T09:30:44.966Z,9.15
2017-12-17T09:33:11.710Z,8.55
2017-12-17T09:35:38.430Z,8.63
2017-12-17T09:38:05.175Z,8.90
2017-12-17T09:40:31.890Z,8.98
2017-12-17T09:42:58.626Z,9.50
2017-12-17T09:45:25.382Z,10.60
2017-12-17T09:47:52.106Z,9.32
2017-12-17T09:50:18.831Z,8.93
2017-12-17T09:52:45.577Z,8.55
2017-12-17T09:55:12.299Z,8.65
2017-12-17T09:57:39.042Z,8.55
2017-12-17T10:00:05.754Z,9.30
2017-12-17T10:02:32.489Z,8.88
2017-12-17T10:05:00.059Z,8.55
2017-12-17T10:07:26.797Z,8.88
2017-12-17T10:09:53.543Z,8.57
2017-12-17T10:12:20.282Z,8.55
2017-12-17T10:14:47.023Z,8.40
2017-12-17T10:17:13.754Z,8.60
2017-12-17T10:19:41.290Z,9.38
2017-12-17T10:22:08.031Z,8.70
2017-12-17T10:24:34.751Z,8.45
2017-12-17T10:27:01.470Z,9.75
2017-12-17T10:29:28.218Z,9.10
2017-12-17T10:31:54.938Z,8.18
2017-12-17T10:34:21.673Z,10.95
2017-12-17T10:36:48.399Z,9.07
2017-12-17T10:39:15.146Z,8.45
2017-12-17T10:41:42.677Z,8.40
2017-12-17T10:44:11.152Z,9.07
2017-12-17T10:46:37.882Z,10.15
2017-12-17T10:49:04.630Z,8.95
2017-12-17T10:51:31.357Z,8.85
2017-12-17T10:53:58.091Z,8.20
2017-12-17T10:56:25.246Z,8.38
2017-12-17T10:58:55.678Z,9.40
2017-12-17T11:01:22.944Z,9.35
2017-12-17T11:04:01.363Z,9.15
2017-12-17T11:06:29.198Z,8.63
2017-12-17T11:08:55.985Z,8.43
2017-12-17T11:11:23.067Z,7.93
2017-12-17T11:13:51.883Z,8.73
2017-12-17T11:16:29.463Z,8.52
2017-12-17T11:18:58.329Z,8.93
2017-12-17T11:21:25.589Z,8.40
2017-12-17T11:23:58.470Z,9.60
2017-12-17T11:26:29.251Z,9.15
2017-12-17T11:29:02.466Z,8.40
2017-12-17T11:34:05.713Z,7.95
2017-12-17T11:36:33.377Z,9.40
2017-12-17T11:39:01.254Z,7.95
2017-12-17T11:41:35.378Z,8.95
2017-12-17T11:44:05.929Z,8.52
2017-12-17T11:46:34.815Z,8.63
2017-12-17T11:49:01.554Z,8.73
2017-12-17T11:51:30.819Z,8.52
2017-12-17T11:53:59.142Z,8.68
2017-12-17T11:56:30.494Z,9.55
2017-12-17T12:04:19.746Z,7.93
2017-12-17T12:06:49.799Z,7.97
2017-12-17T12:09:35.481Z,8.50
2017-12-17T12:12:09.330Z,8.07
2017-12-17T12:17:26.723Z,7.60
2017-12-17T12:20:51.578Z,6.95
2017-12-17T12:23:21.800Z,7.55
2017-12-17T12:25:50.361Z,7.18
2017-12-17T12:28:17.098Z,7.32
2017-12-17T12:30:44.675Z,7.37
2017-12-17T12:33:13.287Z,7.70
2017-12-17T12:35:48.948Z,7.95
2017-12-17T12:38:17.091Z,7.57
2017-12-17T12:40:48.602Z,7.95
2017-12-17T12:43:15.567Z,7.43
2017-12-17T13:07:35.799Z,7.97
2017-12-17T13:10:02.698Z,8.43
2017-12-17T13:12:30.296Z,7.15
2017-12-17T13:14:58.499Z,8.48
2017-12-17T13:17:25.242Z,8.32
2017-12-17T13:19:51.978Z,8.38
2017-12-17T13:22:18.716Z,8.43
2017-12-17T13:24:45.456Z,8.77
2017-12-17T13:27:12.228Z,8.20
2017-12-17T13:29:38.954Z,8.98
2017-12-17T13:32:05.741Z,8.10
2017-12-17T13:34:32.811Z,8.85
2017-12-17T13:37:00.470Z,8.27
2017-12-17T13:39:27.206Z,7.95
2017-12-17T13:41:54.178Z,8.25
2017-12-17T13:44:20.952Z,7.65
2017-12-17T13:46:47.654Z,7.40
2017-12-17T13:49:14.466Z,7.45
2017-12-17T13:51:41.209Z,7.95
2017-12-17T13:54:07.936Z,8.00
2017-12-17T13:56:34.658Z,8.18
2017-12-17T13:59:01.396Z,8.05
2017-12-17T14:01:28.142Z,14.98
2017-12-17T14:03:55.662Z,10.63
2017-12-17T14:06:22.458Z,10.40
2017-12-17T14:08:49.190Z,11.05
2017-12-17T14:11:15.993Z,10.85
2017-12-17T14:13:43.460Z,10.70
2017-12-17T14:16:10.989Z,12.88
2017-12-17T14:18:37.711Z,11.85
2017-12-17T14:21:04.441Z,12.13
2017-12-17T14:23:31.182Z,13.77
2017-12-17T14:25:57.968Z,13.55
2017-12-17T14:28:24.735Z,14.25
2017-12-17T14:30:52.264Z,13.50
2017-12-17T14:33:19.802Z,14.57
2017-12-17T14:35:46.718Z,13.65
2017-12-17T14:38:18.179Z,14.93
2017-12-17T14:40:45.063Z,14.98
2017-12-17T14:43:11.835Z,13.35
2017-12-17T14:45:39.366Z,12.32
2017-12-17T14:48:06.127Z,13.95
2017-12-17T14:50:32.873Z,14.00
2017-12-17T14:55:30.638Z,14.35
2017-12-17T14:57:59.262Z,13.18
2017-12-17T15:00:26.042Z,14.07
2017-12-17T15:02:52.791Z,14.43
2017-12-17T15:05:19.536Z,14.50
2017-12-17T15:07:46.287Z,15.43
2017-12-17T15:10:13.058Z,15.50
2017-12-17T15:12:39.790Z,17.02
2017-12-17T15:15:06.526Z,13.93
2017-12-17T15:17:33.288Z,16.08
2017-12-17T15:20:00.058Z,16.60
2017-12-17T15:22:30.446Z,17.52
2017-12-17T15:24:57.166Z,16.55
2017-12-17T15:27:23.942Z,17.27
2017-12-17T15:29:53.411Z,17.87
2017-12-17T15:32:21.851Z,17.00
2017-12-17T15:34:48.590Z,16.60
2017-12-17T15:37:15.342Z,16.75
2017-12-17T15:39:42.110Z,19.35
2017-12-17T15:42:09.762Z,18.52
2017-12-17T15:44:36.507Z,18.62
2017-12-17T15:47:05.005Z,18.67
2017-12-17T15:49:31.734Z,20.88
2017-12-17T15:51:58.542Z,20.75
2017-12-17T15:54:27.478Z,23.58
2017-12-17T15:56:54.306Z,23.35
2017-12-17T15:59:21.094Z,23.48
2017-12-17T16:01:47.861Z,23.17
2017-12-17T16:04:14.888Z,23.70
2017-12-17T16:06:47.294Z,23.12
2017-12-17T16:09:14.023Z,23.23
2017-12-17T16:11:40.767Z,25.00
2017-12-17T16:14:08.231Z,22.30
2017-12-17T16:16:34.959Z,21.77
2017-12-17T16:19:01.702Z,21.10
2017-12-17T16:21:28.489Z,20.67
2017-12-17T16:23:55.230Z,19.60
2017-12-17T16:26:21.945Z,20.27
2017-12-17T16:28:48.726Z,19.23
2017-12-17T16:31:16.367Z,18.87
2017-12-17T16:33:45.556Z,18.75
2017-12-17T16:36:16.627Z,20.65
2017-12-17T16:38:43.603Z,18.08
2017-12-17T16:41:10.333Z,18.20
2017-12-17T16:43:37.122Z,18.12
2017-12-17T16:46:04.376Z,19.25
2017-12-17T16:48:31.110Z,17.80
2017-12-17T16:50:57.839Z,21.20
2017-12-17T16:53:24.578Z,20.17
2017-12-17T16:55:51.346Z,21.10
2017-12-17T16:58:18.872Z,22.37
2017-12-17T17:00:45.723Z,21.08
2017-12-17T17:03:12.510Z,21.15
2017-12-17T17:05:39.242Z,22.70
2017-12-17T17:08:06.110Z,19.10
2017-12-17T17:10:32.890Z,20.15
2017-12-17T17:12:59.634Z,22.27
2017-12-17T17:15:26.355Z,20.25
2017-12-17T17:17:53.113Z,22.55
2017-12-17T17:20:19.855Z,26.02
2017-12-17T17:22:46.595Z,22.58
2017-12-17T17:25:13.378Z,24.33
2017-12-17T17:27:40.137Z,26.00
2017-12-17T17:30:06.931Z,25.25
2017-12-17T17:32:33.734Z,26.52
2017-12-17T17:40:16.198Z,23.55
2017-12-17T17:42:42.933Z,26.25
2017-12-17T17:45:09.669Z,23.10
2017-12-17T17:47:36.431Z,24.40
2017-12-17T17:50:03.236Z,23.35
2017-12-17T17:52:29.994Z,20.15
2017-12-17T17:54:56.716Z,20.48
2017-12-17T17:59:55.508Z,18.00
2017-12-17T18:02:23.982Z,18.67
2017-12-17T18:04:59.390Z,17.80
2017-12-17T18:10:01.820Z,16.92
2017-12-17T18:12:33.731Z,17.20
2017-12-17T18:15:01.587Z,17.45
2017-12-17T18:17:28.607Z,16.37
2017-12-17T18:22:33.767Z,16.17
2017-12-17T18:25:05.454Z,15.60
2017-12-17T18:27:32.201Z,16.75
2017-12-17T18:29:59.638Z,15.55
2017-12-17T18:32:26.385Z,15.90
2017-12-17T18:34:57.888Z,14.68
2017-12-17T18:37:26.122Z,14.65
2017-12-17T18:42:36.351Z,13.00
2017-12-17T18:45:05.853Z,12.93
2017-12-17T18:47:39.651Z,12.82
2017-12-17T18:52:42.448Z,13.10
2017-12-17T18:55:10.699Z,13.93
2017-12-17T19:00:11.410Z,12.18
2017-12-17T19:02:39.822Z,13.10
2017-12-17T19:05:07.435Z,13.57
2017-12-17T19:07:36.428Z,11.68
2017-12-17T19:10:04.879Z,13.48
2017-12-17T19:12:32.631Z,13.43
2017-12-17T19:14:59.740Z,14.70
2017-12-17T19:17:29.167Z,13.60
2017-12-17T19:19:58.615Z,13.77
2017-12-17T19:22:26.162Z,13.20
2017-12-17T19:24:53.074Z,14.27
2017-12-17T19:27:21.182Z,13.70
2017-12-17T19:32:21.022Z,14.10
2017-12-17T19:34:51.578Z,12.98
2017-12-17T19:37:20.722Z,13.43
2017-12-17T19:39:47.593Z,13.25
2017-12-17T19:42:14.363Z,13.57
2017-12-17T19:44:41.111Z,14.68
2017-12-17T19:47:12.501Z,12.73
2017-12-17T19:49:39.369Z,14.25
2017-12-17T19:52:07.398Z,14.60
2017-12-17T19:54:35.506Z,12.55
2017-12-17T19:57:04.315Z,12.00
2017-12-17T19:59:31.340Z,12.20
2017-12-17T20:01:59.030Z,13.05
2017-12-17T20:04:26.677Z,13.70
2017-12-17T20:06:57.158Z,12.05
2017-12-17T20:12:00.871Z,13.55
2017-12-17T20:14:27.946Z,12.25
2017-12-17T20:16:57.027Z,13.00
2017-12-17T20:19:24.566Z,12.80
2017-12-17T20:21:52.259Z,11.25
2017-12-17T20:24:19.678Z,11.98
2017-12-17T20:26:54.750Z,12.60
2017-12-17T20:29:25.379Z,12.40
2017-12-17T20:31:52.841Z,13.00
2017-12-17T20:34:25.549Z,12.45
2017-12-17T20:36:53.706Z,12.88
2017-12-17T20:39:23.337Z,12.57
2017-12-17T20:41:52.244Z,13.77
2017-12-17T20:44:20.498Z,13.30
2017-12-17T20:46:48.925Z,15.02
2017-12-17T20:49:15.680Z,13.43
2017-12-17T20:51:46.391Z,13.25
2017-12-17T20:54:14.251Z,13.77
2017-12-17T20:56:45.450Z,13.20
2017-12-17T20:59:12.981Z,12.55
2017-12-17T21:01:39.719Z,14.57
2017-12-17T21:04:06.721Z,14.20
2017-12-17T21:06:38.738Z,14.30
2017-12-17T21:09:06.430Z,14.75
2017-12-17T21:11:33.290Z,13.40
2017-12-17T21:14:03.765Z,15.75
2017-12-17T21:16:41.886Z,13.68
2017-12-17T21:19:09.326Z,15.60
2017-12-17T21:21:36.921Z,13.23
2017-12-17T21:26:55.544Z,15.00
2017-12-17T21:29:42.670Z,13.88
2017-12-17T21:44:04.554Z,14.73
2017-12-17T21:52:04.605Z,14.80
2017-12-17T21:55:36.318Z,14.25
2017-12-17T22:03:51.284Z,14.27
2017-12-17T22:12:00.350Z,15.05
2017-12-17T22:17:19.317Z,15.38
2017-12-17T22:19:49.359Z,14.35
2017-12-17T22:22:22.354Z,14.35
2017-12-17T22:24:54.365Z,13.93
2017-12-17T22:27:28.854Z,14.40
2017-12-17T22:32:52.866Z,13.02
2017-12-17T22:35:24.207Z,14.70
2017-12-17T22:38:00.138Z,14.43
2017-12-17T22:40:41.969Z,14.45
2017-12-17T22:43:13.385Z,14.95
2017-12-17T22:45:43.094Z,12.50
2017-12-17T22:56:14.594Z,12.15
2017-12-17T23:01:39.638Z,12.43
2017-12-17T23:09:32.743Z,11.12
2017-12-17T23:12:02.122Z,11.57
2017-12-17T23:14:33.778Z,12.20
2017-12-17T23:19:34.215Z,10.45
2017-12-17T23:24:36.277Z,9.40
2017-12-17T23:27:07.544Z,10.05
2017-12-17T23:29:36.561Z,9.70
2017-12-17T23:32:09.003Z,8.40
2017-12-17T23:39:47.690Z,7.90
2017-12-17T23:42:18.627Z,8.95
2017-12-17T23:44:46.396Z,8.07
2017-12-17T23:47:16.294Z,7.62
2017-12-17T23:49:45.679Z,7.37
2017-12-17T23:52:17.788Z,6.75
2017-12-17T23:54:47.033Z,7.57
2017-12-17T23:59:54.559Z,7.07
